sensor_id;sensor_type;location;lat;lon;timestamp;P1;durP1;ratioP1;P2;durP2;ratioP2
2896;SDS011;1458;49.728;9.228;2022-08-19T00:01:21;0.20;;;0.20;;
2896;SDS011;1458;49.728;9.228;2022-08-19T00:03:48;0.20;;;0.20;;
2896;SDS011;1458;49.728;9.228;2022-08-19T00:06:16;0.30;;;0.30;;
2896;SDS011;1458;49.728;9.228;2022-08-19T00:08:45;0.20;;;0.20;;
2896;SDS011;1458;49.728;9.228;2022-08-19T00:11:12;0.20;;;0.20;;
2896;SDS011;1458;49.728;9.228;2022-08-19T00:13:41;0.20;;;0.20;;
2896;SDS011;1458;49.728;9.228;2022-08-19T00:16:10;0.20;;;0.20;;
2896;SDS011;1458;49.728;9.228;2022-08-19T00:18:38;0.20;;;0.20;;
2896;SDS011;1458;49.728;9.228;2022-08-19T00:21:06;0.20;;;0.20;;
2896;SDS011;1458;49.728;9.228;2022-08-19T00:23:34;0.20;;;0.20;;
2896;SDS011;1458;49.728;9.228;2022-08-19T00:26:05;0.20;;;0.20;;
2896;SDS011;1458;49.728;9.228;2022-08-19T00:28:34;0.20;;;0.20;;
2896;SDS011;1458;49.728;9.228;2022-08-19T00:31:06;0.20;;;0.20;;
2896;SDS011;1458;49.728;9.228;2022-08-19T00:33:35;0.20;;;0.20;;
2896;SDS011;1458;49.728;9.228;2022-08-19T00:36:07;0.10;;;0.10;;
2896;SDS011;1458;49.728;9.228;2022-08-19T00:38:37;0.20;;;0.20;;
2896;SDS011;1458;49.728;9.228;2022-08-19T00:41:09;0.13;;;0.13;;
2896;SDS011;1458;49.728;9.228;2022-08-19T00:43:39;0.20;;;0.20;;
2896;SDS011;1458;49.728;9.228;2022-08-19T00:46:08;0.20;;;0.20;;
2896;SDS011;1458;49.728;9.228;2022-08-19T00:48:37;0.20;;;0.20;;
2896;SDS011;1458;49.728;9.228;2022-08-19T00:51:07;0.10;;;0.10;;
2896;SDS011;1458;49.728;9.228;2022-08-19T00:53:36;0.20;;;0.20;;
2896;SDS011;1458;49.728;9.228;2022-08-19T00:56:05;0.20;;;0.20;;
2896;SDS011;1458;49.728;9.228;2022-08-19T00:58:34;0.20;;;0.20;;
2896;SDS011;1458;49.728;9.228;2022-08-19T01:01:05;0.10;;;0.10;;
2896;SDS011;1458;49.728;9.228;2022-08-19T01:03:35;0.20;;;0.20;;
2896;SDS011;1458;49.728;9.228;2022-08-19T01:06:06;0.20;;;0.20;;
2896;SDS011;1458;49.728;9.228;2022-08-19T01:08:34;0.20;;;0.20;;
2896;SDS011;1458;49.728;9.228;2022-08-19T01:11:01;0.20;;;0.20;;
2896;SDS011;1458;49.728;9.228;2022-08-19T01:13:37;0.20;;;0.20;;
2896;SDS011;1458;49.728;9.228;2022-08-19T01:16:05;0.20;;;0.20;;
2896;SDS011;1458;49.728;9.228;2022-08-19T01:18:39;0.20;;;0.20;;
2896;SDS011;1458;49.728;9.228;2022-08-19T01:21:12;0.10;;;0.10;;
2896;SDS011;1458;49.728;9.228;2022-08-19T01:23:48;0.17;;;0.17;;
2896;SDS011;1458;49.728;9.228;2022-08-19T01:26:17;0.20;;;0.20;;
2896;SDS011;1458;49.728;9.228;2022-08-19T01:28:48;0.10;;;0.10;;
2896;SDS011;1458;49.728;9.228;2022-08-19T01:31:21;0.30;;;0.30;;
2896;SDS011;1458;49.728;9.228;2022-08-19T01:33:52;0.20;;;0.20;;
2896;SDS011;1458;49.728;9.228;2022-08-19T01:36:23;0.20;;;0.20;;
2896;SDS011;1458;49.728;9.228;2022-08-19T01:38:55;0.20;;;0.20;;
2896;SDS011;1458;49.728;9.228;2022-08-19T01:41:24;0.20;;;0.20;;
2896;SDS011;1458;49.728;9.228;2022-08-19T01:43:52;0.20;;;0.20;;
2896;SDS011;1458;49.728;9.228;2022-08-19T01:46:21;0.30;;;0.30;;
2896;SDS011;1458;49.728;9.228;2022-08-19T01:48:49;0.20;;;0.20;;
2896;SDS011;1458;49.728;9.228;2022-08-19T01:51:16;0.13;;;0.13;;
2896;SDS011;1458;49.728;9.228;2022-08-19T01:53:46;0.20;;;0.20;;
2896;SDS011;1458;49.728;9.228;2022-08-19T01:56:17;0.20;;;0.20;;
2896;SDS011;1458;49.728;9.228;2022-08-19T01:58:47;0.20;;;0.20;;
2896;SDS011;1458;49.728;9.228;2022-08-19T02:01:21;0.20;;;0.20;;
2896;SDS011;1458;49.728;9.228;2022-08-19T02:03:49;0.20;;;0.20;;
2896;SDS011;1458;49.728;9.228;2022-08-19T02:06:19;0.10;;;0.10;;
2896;SDS011;1458;49.728;9.228;2022-08-19T02:08:47;0.10;;;0.10;;
2896;SDS011;1458;49.728;9.228;2022-08-19T02:11:20;0.20;;;0.20;;
2896;SDS011;1458;49.728;9.228;2022-08-19T02:13:52;0.13;;;0.13;;
2896;SDS011;1458;49.728;9.228;2022-08-19T02:16:21;0.10;;;0.10;;
2896;SDS011;1458;49.728;9.228;2022-08-19T02:18:48;0.20;;;0.20;;
2896;SDS011;1458;49.728;9.228;2022-08-19T02:21:16;0.17;;;0.17;;
2896;SDS011;1458;49.728;9.228;2022-08-19T02:23:46;0.10;;;0.10;;
2896;SDS011;1458;49.728;9.228;2022-08-19T02:26:14;0.10;;;0.10;;
2896;SDS011;1458;49.728;9.228;2022-08-19T02:28:43;0.20;;;0.20;;
2896;SDS011;1458;49.728;9.228;2022-08-19T02:31:11;0.20;;;0.20;;
2896;SDS011;1458;49.728;9.228;2022-08-19T02:33:46;0.20;;;0.20;;
2896;SDS011;1458;49.728;9.228;2022-08-19T02:36:14;0.20;;;0.20;;
2896;SDS011;1458;49.728;9.228;2022-08-19T02:38:43;0.20;;;0.20;;
2896;SDS011;1458;49.728;9.228;2022-08-19T02:41:11;0.20;;;0.20;;
2896;SDS011;1458;49.728;9.228;2022-08-19T02:43:43;0.20;;;0.20;;
2896;SDS011;1458;49.728;9.228;2022-08-19T02:46:13;0.20;;;0.20;;
2896;SDS011;1458;49.728;9.228;2022-08-19T02:48:46;0.20;;;0.20;;
2896;SDS011;1458;49.728;9.228;2022-08-19T02:51:16;0.20;;;0.20;;
2896;SDS011;1458;49.728;9.228;2022-08-19T02:53:46;0.20;;;0.20;;
2896;SDS011;1458;49.728;9.228;2022-08-19T02:56:14;0.20;;;0.20;;
2896;SDS011;1458;49.728;9.228;2022-08-19T02:58:44;0.20;;;0.20;;
2896;SDS011;1458;49.728;9.228;2022-08-19T03:01:18;0.10;;;0.10;;
2896;SDS011;1458;49.728;9.228;2022-08-19T03:03:48;0.20;;;0.20;;
2896;SDS011;1458;49.728;9.228;2022-08-19T03:06:16;0.20;;;0.20;;
2896;SDS011;1458;49.728;9.228;2022-08-19T03:08:44;0.20;;;0.20;;
2896;SDS011;1458;49.728;9.228;2022-08-19T03:11:13;0.10;;;0.10;;
2896;SDS011;1458;49.728;9.228;2022-08-19T03:13:43;0.20;;;0.20;;
2896;SDS011;1458;49.728;9.228;2022-08-19T03:16:11;0.10;;;0.10;;
2896;SDS011;1458;49.728;9.228;2022-08-19T03:18:39;0.20;;;0.20;;
2896;SDS011;1458;49.728;9.228;2022-08-19T03:21:06;0.20;;;0.20;;
2896;SDS011;1458;49.728;9.228;2022-08-19T03:23:34;0.20;;;0.20;;
2896;SDS011;1458;49.728;9.228;2022-08-19T03:26:05;0.10;;;0.10;;
2896;SDS011;1458;49.728;9.228;2022-08-19T03:28:33;0.10;;;0.10;;
2896;SDS011;1458;49.728;9.228;2022-08-19T03:31:06;0.10;;;0.10;;
2896;SDS011;1458;49.728;9.228;2022-08-19T03:33:37;0.20;;;0.20;;
2896;SDS011;1458;49.728;9.228;2022-08-19T03:36:06;0.20;;;0.20;;
2896;SDS011;1458;49.728;9.228;2022-08-19T03:38:40;0.10;;;0.10;;
2896;SDS011;1458;49.728;9.228;2022-08-19T03:41:11;0.20;;;0.20;;
2896;SDS011;1458;49.728;9.228;2022-08-19T03:43:43;0.20;;;0.20;;
2896;SDS011;1458;49.728;9.228;2022-08-19T03:46:15;0.20;;;0.20;;
2896;SDS011;1458;49.728;9.228;2022-08-19T03:48:56;0.10;;;0.10;;
2896;SDS011;1458;49.728;9.228;2022-08-19T03:51:27;0.20;;;0.20;;
2896;SDS011;1458;49.728;9.228;2022-08-19T03:53:58;0.20;;;0.20;;
2896;SDS011;1458;49.728;9.228;2022-08-19T03:56:28;0.10;;;0.10;;
2896;SDS011;1458;49.728;9.228;2022-08-19T03:58:56;0.13;;;0.13;;
2896;SDS011;1458;49.728;9.228;2022-08-19T04:01:27;0.20;;;0.20;;
2896;SDS011;1458;49.728;9.228;2022-08-19T04:03:55;0.20;;;0.20;;
2896;SDS011;1458;49.728;9.228;2022-08-19T04:06:25;0.20;;;0.20;;
2896;SDS011;1458;49.728;9.228;2022-08-19T04:08:55;0.20;;;0.20;;
2896;SDS011;1458;49.728;9.228;2022-08-19T04:11:25;0.20;;;0.20;;
2896;SDS011;1458;49.728;9.228;2022-08-19T04:13:57;0.20;;;0.20;;
2896;SDS011;1458;49.728;9.228;2022-08-19T04:16:27;0.20;;;0.20;;
2896;SDS011;1458;49.728;9.228;2022-08-19T04:18:55;0.20;;;0.20;;
2896;SDS011;1458;49.728;9.228;2022-08-19T04:21:26;0.10;;;0.10;;
2896;SDS011;1458;49.728;9.228;2022-08-19T04:23:55;0.20;;;0.20;;
2896;SDS011;1458;49.728;9.228;2022-08-19T04:26:24;0.20;;;0.20;;
2896;SDS011;1458;49.728;9.228;2022-08-19T04:28:57;0.20;;;0.20;;
2896;SDS011;1458;49.728;9.228;2022-08-19T04:31:27;0.20;;;0.20;;
2896;SDS011;1458;49.728;9.228;2022-08-19T04:34:01;0.20;;;0.20;;
2896;SDS011;1458;49.728;9.228;2022-08-19T04:36:32;0.20;;;0.20;;
2896;SDS011;1458;49.728;9.228;2022-08-19T04:39:03;0.20;;;0.20;;
2896;SDS011;1458;49.728;9.228;2022-08-19T04:41:32;0.20;;;0.20;;
2896;SDS011;1458;49.728;9.228;2022-08-19T04:44:18;0.20;;;0.20;;
2896;SDS011;1458;49.728;9.228;2022-08-19T04:46:48;0.20;;;0.20;;
2896;SDS011;1458;49.728;9.228;2022-08-19T04:49:17;0.20;;;0.20;;
2896;SDS011;1458;49.728;9.228;2022-08-19T04:51:47;0.20;;;0.20;;
2896;SDS011;1458;49.728;9.228;2022-08-19T04:54:16;0.20;;;0.20;;
2896;SDS011;1458;49.728;9.228;2022-08-19T04:56:45;0.20;;;0.20;;
2896;SDS011;1458;49.728;9.228;2022-08-19T04:59:15;0.20;;;0.20;;
2896;SDS011;1458;49.728;9.228;2022-08-19T05:01:43;0.20;;;0.20;;
2896;SDS011;1458;49.728;9.228;2022-08-19T05:04:17;0.20;;;0.20;;
2896;SDS011;1458;49.728;9.228;2022-08-19T05:06:48;0.20;;;0.20;;
2896;SDS011;1458;49.728;9.228;2022-08-19T05:09:17;0.20;;;0.20;;
2896;SDS011;1458;49.728;9.228;2022-08-19T05:11:47;0.30;;;0.30;;
2896;SDS011;1458;49.728;9.228;2022-08-19T05:14:18;0.23;;;0.23;;
2896;SDS011;1458;49.728;9.228;2022-08-19T05:16:46;0.20;;;0.20;;
2896;SDS011;1458;49.728;9.228;2022-08-19T05:19:16;0.30;;;0.30;;
2896;SDS011;1458;49.728;9.228;2022-08-19T05:22:01;0.30;;;0.30;;
2896;SDS011;1458;49.728;9.228;2022-08-19T05:24:46;0.30;;;0.30;;
2896;SDS011;1458;49.728;9.228;2022-08-19T05:27:14;0.20;;;0.20;;
2896;SDS011;1458;49.728;9.228;2022-08-19T05:29:41;0.30;;;0.30;;
2896;SDS011;1458;49.728;9.228;2022-08-19T05:32:09;0.30;;;0.30;;
2896;SDS011;1458;49.728;9.228;2022-08-19T05:34:40;0.40;;;0.40;;
2896;SDS011;1458;49.728;9.228;2022-08-19T05:37:08;0.30;;;0.30;;
2896;SDS011;1458;49.728;9.228;2022-08-19T05:39:36;0.33;;;0.33;;
2896;SDS011;1458;49.728;9.228;2022-08-19T05:42:07;0.40;;;0.40;;
2896;SDS011;1458;49.728;9.228;2022-08-19T05:44:38;0.37;;;0.37;;
2896;SDS011;1458;49.728;9.228;2022-08-19T05:47:09;0.50;;;0.50;;
2896;SDS011;1458;49.728;9.228;2022-08-19T05:49:41;0.40;;;0.40;;
2896;SDS011;1458;49.728;9.228;2022-08-19T05:52:10;0.40;;;0.40;;
2896;SDS011;1458;49.728;9.228;2022-08-19T05:54:42;0.50;;;0.50;;
2896;SDS011;1458;49.728;9.228;2022-08-19T05:57:12;0.40;;;0.40;;
2896;SDS011;1458;49.728;9.228;2022-08-19T05:59:40;0.50;;;0.50;;
2896;SDS011;1458;49.728;9.228;2022-08-19T06:02:09;0.50;;;0.50;;
2896;SDS011;1458;49.728;9.228;2022-08-19T06:04:37;0.70;;;0.70;;
2896;SDS011;1458;49.728;9.228;2022-08-19T06:07:08;0.50;;;0.50;;
2896;SDS011;1458;49.728;9.228;2022-08-19T06:09:36;0.50;;;0.50;;
2896;SDS011;1458;49.728;9.228;2022-08-19T06:12:03;0.70;;;0.70;;
2896;SDS011;1458;49.728;9.228;2022-08-19T06:14:33;0.37;;;0.37;;
2896;SDS011;1458;49.728;9.228;2022-08-19T06:17:01;0.50;;;0.50;;
2896;SDS011;1458;49.728;9.228;2022-08-19T06:19:30;0.40;;;0.40;;
2896;SDS011;1458;49.728;9.228;2022-08-19T06:21:58;0.50;;;0.50;;
2896;SDS011;1458;49.728;9.228;2022-08-19T06:24:28;0.60;;;0.60;;
2896;SDS011;1458;49.728;9.228;2022-08-19T06:26:57;0.60;;;0.60;;
2896;SDS011;1458;49.728;9.228;2022-08-19T06:29:26;0.70;;;0.70;;
2896;SDS011;1458;49.728;9.228;2022-08-19T06:31:55;0.70;;;0.70;;
2896;SDS011;1458;49.728;9.228;2022-08-19T06:34:26;0.60;;;0.60;;
2896;SDS011;1458;49.728;9.228;2022-08-19T06:36:55;0.83;;;0.83;;
2896;SDS011;1458;49.728;9.228;2022-08-19T06:39:28;0.73;;;0.73;;
2896;SDS011;1458;49.728;9.228;2022-08-19T06:42:00;0.90;;;0.90;;
2896;SDS011;1458;49.728;9.228;2022-08-19T06:44:34;0.73;;;0.73;;
2896;SDS011;1458;49.728;9.228;2022-08-19T06:47:06;1.00;;;1.00;;
2896;SDS011;1458;49.728;9.228;2022-08-19T06:49:35;1.00;;;1.00;;
2896;SDS011;1458;49.728;9.228;2022-08-19T06:52:03;1.00;;;1.00;;
2896;SDS011;1458;49.728;9.228;2022-08-19T06:54:33;1.20;;;1.20;;
2896;SDS011;1458;49.728;9.228;2022-08-19T06:57:01;1.10;;;1.10;;
2896;SDS011;1458;49.728;9.228;2022-08-19T06:59:30;1.33;;;1.33;;
2896;SDS011;1458;49.728;9.228;2022-08-19T07:01:59;1.20;;;1.20;;
2896;SDS011;1458;49.728;9.228;2022-08-19T07:04:32;1.80;;;1.80;;
2896;SDS011;1458;49.728;9.228;2022-08-19T07:07:03;1.30;;;1.30;;
2896;SDS011;1458;49.728;9.228;2022-08-19T07:09:35;2.00;;;2.00;;
2896;SDS011;1458;49.728;9.228;2022-08-19T07:12:06;2.00;;;2.00;;
2896;SDS011;1458;49.728;9.228;2022-08-19T07:14:36;2.00;;;2.00;;
2896;SDS011;1458;49.728;9.228;2022-08-19T07:17:05;1.90;;;1.90;;
2896;SDS011;1458;49.728;9.228;2022-08-19T07:19:38;1.90;;;1.90;;
2896;SDS011;1458;49.728;9.228;2022-08-19T07:22:07;2.57;;;2.57;;
2896;SDS011;1458;49.728;9.228;2022-08-19T07:24:37;2.60;;;2.60;;
2896;SDS011;1458;49.728;9.228;2022-08-19T07:27:05;2.80;;;2.80;;
2896;SDS011;1458;49.728;9.228;2022-08-19T07:29:35;2.77;;;2.77;;
2896;SDS011;1458;49.728;9.228;2022-08-19T07:32:04;2.60;;;2.60;;
2896;SDS011;1458;49.728;9.228;2022-08-19T07:34:32;2.50;;;2.50;;
2896;SDS011;1458;49.728;9.228;2022-08-19T07:37:02;2.67;;;2.67;;
2896;SDS011;1458;49.728;9.228;2022-08-19T07:39:31;2.60;;;2.60;;
2896;SDS011;1458;49.728;9.228;2022-08-19T07:42:03;2.40;;;2.40;;
2896;SDS011;1458;49.728;9.228;2022-08-19T07:44:35;2.70;;;2.70;;
2896;SDS011;1458;49.728;9.228;2022-08-19T07:47:04;3.20;;;3.20;;
2896;SDS011;1458;49.728;9.228;2022-08-19T07:49:32;3.53;;;3.53;;
2896;SDS011;1458;49.728;9.228;2022-08-19T07:52:00;2.67;;;2.67;;
2896;SDS011;1458;49.728;9.228;2022-08-19T07:54:35;3.03;;;3.03;;
2896;SDS011;1458;49.728;9.228;2022-08-19T07:57:05;3.73;;;3.73;;
2896;SDS011;1458;49.728;9.228;2022-08-19T07:59:34;3.63;;;3.63;;
2896;SDS011;1458;49.728;9.228;2022-08-19T08:02:02;4.17;;;4.17;;
2896;SDS011;1458;49.728;9.228;2022-08-19T08:04:31;3.57;;;3.57;;
2896;SDS011;1458;49.728;9.228;2022-08-19T08:07:16;4.07;;;4.07;;
2896;SDS011;1458;49.728;9.228;2022-08-19T08:10:16;4.27;;;4.27;;
2896;SDS011;1458;49.728;9.228;2022-08-19T08:12:45;4.90;;;4.90;;
2896;SDS011;1458;49.728;9.228;2022-08-19T08:15:14;5.73;;;5.73;;
2896;SDS011;1458;49.728;9.228;2022-08-19T08:17:44;5.53;;;5.53;;
2896;SDS011;1458;49.728;9.228;2022-08-19T08:20:12;5.17;;;5.17;;
2896;SDS011;1458;49.728;9.228;2022-08-19T08:22:43;5.90;;;5.90;;
2896;SDS011;1458;49.728;9.228;2022-08-19T08:25:29;5.03;;;5.03;;
2896;SDS011;1458;49.728;9.228;2022-08-19T08:27:58;4.10;;;4.10;;
2896;SDS011;1458;49.728;9.228;2022-08-19T08:30:27;5.40;;;5.40;;
2896;SDS011;1458;49.728;9.228;2022-08-19T08:32:57;5.17;;;5.17;;
2896;SDS011;1458;49.728;9.228;2022-08-19T08:35:25;5.33;;;5.33;;
2896;SDS011;1458;49.728;9.228;2022-08-19T08:37:54;4.90;;;4.90;;
2896;SDS011;1458;49.728;9.228;2022-08-19T08:40:26;4.10;;;4.10;;
2896;SDS011;1458;49.728;9.228;2022-08-19T08:43:03;4.80;;;4.80;;
2896;SDS011;1458;49.728;9.228;2022-08-19T08:45:38;4.90;;;4.90;;
2896;SDS011;1458;49.728;9.228;2022-08-19T08:48:17;5.20;;;5.20;;
2896;SDS011;1458;49.728;9.228;2022-08-19T08:50:49;5.23;;;5.23;;
2896;SDS011;1458;49.728;9.228;2022-08-19T08:53:19;5.50;;;5.50;;
2896;SDS011;1458;49.728;9.228;2022-08-19T08:55:48;5.30;;;5.30;;
2896;SDS011;1458;49.728;9.228;2022-08-19T08:58:17;6.20;;;6.20;;
2896;SDS011;1458;49.728;9.228;2022-08-19T09:00:52;5.90;;;5.90;;
2896;SDS011;1458;49.728;9.228;2022-08-19T09:03:20;6.70;;;6.60;;
2896;SDS011;1458;49.728;9.228;2022-08-19T09:05:56;7.03;;;6.93;;
2896;SDS011;1458;49.728;9.228;2022-08-19T09:08:33;7.00;;;6.90;;
2896;SDS011;1458;49.728;9.228;2022-08-19T09:11:09;7.37;;;7.27;;
2896;SDS011;1458;49.728;9.228;2022-08-19T09:13:48;6.43;;;6.40;;
2896;SDS011;1458;49.728;9.228;2022-08-19T09:16:29;7.20;;;7.10;;
2896;SDS011;1458;49.728;9.228;2022-08-19T09:18:58;7.33;;;7.23;;
2896;SDS011;1458;49.728;9.228;2022-08-19T09:21:30;7.40;;;7.30;;
2896;SDS011;1458;49.728;9.228;2022-08-19T09:23:59;8.00;;;7.90;;
2896;SDS011;1458;49.728;9.228;2022-08-19T09:26:27;8.40;;;8.30;;
2896;SDS011;1458;49.728;9.228;2022-08-19T09:28:56;8.77;;;8.57;;
2896;SDS011;1458;49.728;9.228;2022-08-19T09:31:26;9.30;;;9.10;;
2896;SDS011;1458;49.728;9.228;2022-08-19T09:33:56;9.80;;;9.60;;
2896;SDS011;1458;49.728;9.228;2022-08-19T09:36:23;9.90;;;9.70;;
2896;SDS011;1458;49.728;9.228;2022-08-19T09:38:54;10.67;;;10.37;;
2896;SDS011;1458;49.728;9.228;2022-08-19T09:41:23;11.33;;;11.03;;
2896;SDS011;1458;49.728;9.228;2022-08-19T09:43:54;11.60;;;11.30;;
2896;SDS011;1458;49.728;9.228;2022-08-19T09:46:25;11.60;;;11.30;;
2896;SDS011;1458;49.728;9.228;2022-08-19T09:48:57;12.70;;;12.30;;
2896;SDS011;1458;49.728;9.228;2022-08-19T09:51:26;12.20;;;11.80;;
2896;SDS011;1458;49.728;9.228;2022-08-19T09:53:58;11.60;;;11.30;;
2896;SDS011;1458;49.728;9.228;2022-08-19T09:56:28;12.50;;;12.10;;
2896;SDS011;1458;49.728;9.228;2022-08-19T09:58:58;12.40;;;12.00;;
2896;SDS011;1458;49.728;9.228;2022-08-19T10:01:27;11.97;;;11.60;;
2896;SDS011;1458;49.728;9.228;2022-08-19T10:03:57;12.37;;;11.97;;
2896;SDS011;1458;49.728;9.228;2022-08-19T10:06:28;12.40;;;12.00;;
2896;SDS011;1458;49.728;9.228;2022-08-19T10:08:58;12.63;;;12.23;;
2896;SDS011;1458;49.728;9.228;2022-08-19T10:11:25;13.30;;;12.90;;
2896;SDS011;1458;49.728;9.228;2022-08-19T10:13:54;13.70;;;13.20;;
2896;SDS011;1458;49.728;9.228;2022-08-19T10:16:23;13.40;;;13.00;;
2896;SDS011;1458;49.728;9.228;2022-08-19T10:18:52;13.67;;;13.17;;
2896;SDS011;1458;49.728;9.228;2022-08-19T10:21:21;13.40;;;12.90;;
2896;SDS011;1458;49.728;9.228;2022-08-19T10:23:52;13.50;;;13.10;;
2896;SDS011;1458;49.728;9.228;2022-08-19T10:26:23;12.50;;;12.10;;
2896;SDS011;1458;49.728;9.228;2022-08-19T10:28:53;13.10;;;12.70;;
2896;SDS011;1458;49.728;9.228;2022-08-19T10:31:26;13.27;;;12.87;;
2896;SDS011;1458;49.728;9.228;2022-08-19T10:33:56;13.70;;;13.20;;
2896;SDS011;1458;49.728;9.228;2022-08-19T10:36:25;13.23;;;12.80;;
2896;SDS011;1458;49.728;9.228;2022-08-19T10:38:55;13.33;;;12.93;;
2896;SDS011;1458;49.728;9.228;2022-08-19T10:41:27;13.10;;;12.70;;
2896;SDS011;1458;49.728;9.228;2022-08-19T10:43:57;14.53;;;14.03;;
2896;SDS011;1458;49.728;9.228;2022-08-19T10:46:33;13.20;;;12.80;;
2896;SDS011;1458;49.728;9.228;2022-08-19T10:49:06;13.40;;;13.00;;
2896;SDS011;1458;49.728;9.228;2022-08-19T10:51:37;13.37;;;12.97;;
2896;SDS011;1458;49.728;9.228;2022-08-19T10:54:25;13.90;;;13.40;;
2896;SDS011;1458;49.728;9.228;2022-08-19T10:57:13;13.97;;;13.47;;
2896;SDS011;1458;49.728;9.228;2022-08-19T10:59:40;13.27;;;12.87;;
2896;SDS011;1458;49.728;9.228;2022-08-19T11:02:10;13.40;;;12.97;;
2896;SDS011;1458;49.728;9.228;2022-08-19T11:04:38;13.60;;;13.10;;
2896;SDS011;1458;49.728;9.228;2022-08-19T11:07:06;13.87;;;13.37;;
2896;SDS011;1458;49.728;9.228;2022-08-19T11:09:37;13.70;;;13.20;;
2896;SDS011;1458;49.728;9.228;2022-08-19T11:12:07;14.13;;;13.63;;
2896;SDS011;1458;49.728;9.228;2022-08-19T11:14:37;13.70;;;13.20;;
2896;SDS011;1458;49.728;9.228;2022-08-19T11:17:05;14.27;;;13.77;;
2896;SDS011;1458;49.728;9.228;2022-08-19T11:19:35;14.70;;;14.20;;
2896;SDS011;1458;49.728;9.228;2022-08-19T11:22:02;14.30;;;13.80;;
2896;SDS011;1458;49.728;9.228;2022-08-19T11:24:30;14.00;;;13.50;;
2896;SDS011;1458;49.728;9.228;2022-08-19T11:27:03;14.10;;;13.60;;
2896;SDS011;1458;49.728;9.228;2022-08-19T11:29:34;13.77;;;13.30;;
2896;SDS011;1458;49.728;9.228;2022-08-19T11:32:04;13.87;;;13.37;;
2896;SDS011;1458;49.728;9.228;2022-08-19T11:34:36;14.17;;;13.67;;
2896;SDS011;1458;49.728;9.228;2022-08-19T11:37:04;14.67;;;14.17;;
2896;SDS011;1458;49.728;9.228;2022-08-19T11:39:36;13.77;;;13.27;;
2896;SDS011;1458;49.728;9.228;2022-08-19T11:42:05;13.70;;;13.30;;
2896;SDS011;1458;49.728;9.228;2022-08-19T11:44:47;13.77;;;13.33;;
2896;SDS011;1458;49.728;9.228;2022-08-19T11:47:15;13.70;;;13.20;;
2896;SDS011;1458;49.728;9.228;2022-08-19T11:49:45;13.50;;;13.10;;
2896;SDS011;1458;49.728;9.228;2022-08-19T11:52:13;13.70;;;13.20;;
2896;SDS011;1458;49.728;9.228;2022-08-19T11:54:40;13.93;;;13.43;;
2896;SDS011;1458;49.728;9.228;2022-08-19T11:57:08;13.83;;;13.33;;
2896;SDS011;1458;49.728;9.228;2022-08-19T11:59:35;14.50;;;14.00;;
2896;SDS011;1458;49.728;9.228;2022-08-19T12:02:03;13.10;;;12.70;;
2896;SDS011;1458;49.728;9.228;2022-08-19T12:04:30;14.23;;;13.73;;
2896;SDS011;1458;49.728;9.228;2022-08-19T12:06:59;13.80;;;13.30;;
2896;SDS011;1458;49.728;9.228;2022-08-19T12:09:28;13.90;;;13.40;;
2896;SDS011;1458;49.728;9.228;2022-08-19T12:11:59;14.10;;;13.60;;
2896;SDS011;1458;49.728;9.228;2022-08-19T12:14:27;13.70;;;13.20;;
2896;SDS011;1458;49.728;9.228;2022-08-19T12:16:57;14.07;;;13.57;;
2896;SDS011;1458;49.728;9.228;2022-08-19T12:19:25;14.50;;;14.00;;
2896;SDS011;1458;49.728;9.228;2022-08-19T12:21:54;14.00;;;13.50;;
2896;SDS011;1458;49.728;9.228;2022-08-19T12:24:30;13.50;;;13.10;;
2896;SDS011;1458;49.728;9.228;2022-08-19T12:26:59;13.83;;;13.33;;
2896;SDS011;1458;49.728;9.228;2022-08-19T12:29:28;14.43;;;13.93;;
2896;SDS011;1458;49.728;9.228;2022-08-19T12:31:56;14.40;;;13.90;;
2896;SDS011;1458;49.728;9.228;2022-08-19T12:34:28;13.83;;;13.33;;
2896;SDS011;1458;49.728;9.228;2022-08-19T12:36:57;14.50;;;14.00;;
2896;SDS011;1458;49.728;9.228;2022-08-19T12:39:29;14.13;;;13.63;;
2896;SDS011;1458;49.728;9.228;2022-08-19T12:42:02;13.87;;;13.37;;
2896;SDS011;1458;49.728;9.228;2022-08-19T12:44:30;13.50;;;13.00;;
2896;SDS011;1458;49.728;9.228;2022-08-19T12:46:58;13.83;;;13.33;;
2896;SDS011;1458;49.728;9.228;2022-08-19T12:49:29;13.70;;;13.20;;
2896;SDS011;1458;49.728;9.228;2022-08-19T12:52:00;14.20;;;13.70;;
2896;SDS011;1458;49.728;9.228;2022-08-19T12:54:28;13.90;;;13.40;;
2896;SDS011;1458;49.728;9.228;2022-08-19T12:56:56;13.73;;;13.23;;
2896;SDS011;1458;49.728;9.228;2022-08-19T12:59:24;13.87;;;13.37;;
2896;SDS011;1458;49.728;9.228;2022-08-19T13:01:52;14.03;;;13.53;;
2896;SDS011;1458;49.728;9.228;2022-08-19T13:04:21;13.67;;;13.17;;
2896;SDS011;1458;49.728;9.228;2022-08-19T13:06:48;14.17;;;13.67;;
2896;SDS011;1458;49.728;9.228;2022-08-19T13:09:17;13.93;;;13.43;;
2896;SDS011;1458;49.728;9.228;2022-08-19T13:11:45;13.97;;;13.47;;
2896;SDS011;1458;49.728;9.228;2022-08-19T13:14:13;13.83;;;13.33;;
2896;SDS011;1458;49.728;9.228;2022-08-19T13:16:40;13.93;;;13.43;;
2896;SDS011;1458;49.728;9.228;2022-08-19T13:19:08;13.97;;;13.47;;
2896;SDS011;1458;49.728;9.228;2022-08-19T13:21:37;13.80;;;13.30;;
2896;SDS011;1458;49.728;9.228;2022-08-19T13:24:04;13.70;;;13.20;;
2896;SDS011;1458;49.728;9.228;2022-08-19T13:26:36;13.77;;;13.27;;
2896;SDS011;1458;49.728;9.228;2022-08-19T13:29:04;13.70;;;13.20;;
2896;SDS011;1458;49.728;9.228;2022-08-19T13:31:48;13.70;;;13.20;;
2896;SDS011;1458;49.728;9.228;2022-08-19T13:34:36;13.80;;;13.30;;
2896;SDS011;1458;49.728;9.228;2022-08-19T13:37:04;13.40;;;12.90;;
2896;SDS011;1458;49.728;9.228;2022-08-19T13:39:33;13.43;;;12.93;;
2896;SDS011;1458;49.728;9.228;2022-08-19T13:42:03;12.90;;;12.50;;
2896;SDS011;1458;49.728;9.228;2022-08-19T13:44:32;13.13;;;12.73;;
2896;SDS011;1458;49.728;9.228;2022-08-19T13:47:00;13.70;;;13.20;;
2896;SDS011;1458;49.728;9.228;2022-08-19T13:49:32;14.03;;;13.53;;
2896;SDS011;1458;49.728;9.228;2022-08-19T13:52:01;13.50;;;13.00;;
2896;SDS011;1458;49.728;9.228;2022-08-19T13:54:30;13.60;;;13.10;;
2896;SDS011;1458;49.728;9.228;2022-08-19T13:56:58;13.90;;;13.40;;
2896;SDS011;1458;49.728;9.228;2022-08-19T13:59:27;13.43;;;12.93;;
2896;SDS011;1458;49.728;9.228;2022-08-19T14:01:57;14.07;;;13.57;;
2896;SDS011;1458;49.728;9.228;2022-08-19T14:04:25;13.93;;;13.43;;
2896;SDS011;1458;49.728;9.228;2022-08-19T14:06:53;13.83;;;13.33;;
2896;SDS011;1458;49.728;9.228;2022-08-19T14:09:21;13.10;;;12.70;;
2896;SDS011;1458;49.728;9.228;2022-08-19T14:11:48;13.50;;;13.00;;
2896;SDS011;1458;49.728;9.228;2022-08-19T14:14:16;13.40;;;12.90;;
2896;SDS011;1458;49.728;9.228;2022-08-19T14:16:45;13.50;;;13.00;;
2896;SDS011;1458;49.728;9.228;2022-08-19T14:19:13;13.80;;;13.30;;
2896;SDS011;1458;49.728;9.228;2022-08-19T14:21:41;14.37;;;13.87;;
2896;SDS011;1458;49.728;9.228;2022-08-19T14:24:09;13.97;;;13.47;;
2896;SDS011;1458;49.728;9.228;2022-08-19T14:26:36;13.80;;;13.30;;
2896;SDS011;1458;49.728;9.228;2022-08-19T14:29:04;13.60;;;13.10;;
2896;SDS011;1458;49.728;9.228;2022-08-19T14:31:31;14.10;;;13.60;;
2896;SDS011;1458;49.728;9.228;2022-08-19T14:34:01;13.80;;;13.30;;
2896;SDS011;1458;49.728;9.228;2022-08-19T14:36:29;13.77;;;13.27;;
2896;SDS011;1458;49.728;9.228;2022-08-19T14:38:59;13.73;;;13.23;;
2896;SDS011;1458;49.728;9.228;2022-08-19T14:41:27;14.20;;;13.70;;
2896;SDS011;1458;49.728;9.228;2022-08-19T14:43:55;13.70;;;13.20;;
2896;SDS011;1458;49.728;9.228;2022-08-19T14:46:27;13.90;;;13.40;;
2896;SDS011;1458;49.728;9.228;2022-08-19T14:48:55;13.50;;;13.00;;
2896;SDS011;1458;49.728;9.228;2022-08-19T14:51:26;13.80;;;13.30;;
2896;SDS011;1458;49.728;9.228;2022-08-19T14:53:54;13.70;;;13.20;;
2896;SDS011;1458;49.728;9.228;2022-08-19T14:56:22;13.60;;;13.10;;
2896;SDS011;1458;49.728;9.228;2022-08-19T14:58:55;13.53;;;13.03;;
2896;SDS011;1458;49.728;9.228;2022-08-19T15:01:26;13.80;;;13.30;;
2896;SDS011;1458;49.728;9.228;2022-08-19T15:03:54;13.20;;;12.70;;
2896;SDS011;1458;49.728;9.228;2022-08-19T15:06:24;14.00;;;13.50;;
2896;SDS011;1458;49.728;9.228;2022-08-19T15:08:54;13.30;;;12.80;;
2896;SDS011;1458;49.728;9.228;2022-08-19T15:11:23;13.57;;;13.07;;
2896;SDS011;1458;49.728;9.228;2022-08-19T15:13:52;13.33;;;12.83;;
2896;SDS011;1458;49.728;9.228;2022-08-19T15:16:21;13.80;;;13.30;;
2896;SDS011;1458;49.728;9.228;2022-08-19T15:18:50;13.50;;;13.00;;
2896;SDS011;1458;49.728;9.228;2022-08-19T15:21:27;13.33;;;12.83;;
2896;SDS011;1458;49.728;9.228;2022-08-19T15:23:57;13.53;;;13.03;;